createdAt,value
2023-01-29T00:02:06.433Z,98348.06
2023-01-29T00:04:33.373Z,98353.25
2023-01-29T00:07:00.218Z,98354.81
2023-01-29T00:09:28.114Z,98357.34
2023-01-29T00:11:54.748Z,98360.91
2023-01-29T00:14:21.570Z,98362.13
2023-01-29T00:16:48.180Z,98361.44
2023-01-29T00:19:14.900Z,98364.66
2023-01-29T00:21:41.560Z,98361.03
2023-01-29T00:24:08.290Z,98364.56
2023-01-29T00:26:35.354Z,98363.69
2023-01-29T00:29:02.671Z,98359.28
2023-01-29T00:31:29.361Z,98360.19
2023-01-29T00:33:56.318Z,98365.31
2023-01-29T00:36:23.440Z,98370.38
2023-01-29T00:38:58.886Z,98361.13
2023-01-29T00:41:52.045Z,98359.25
2023-01-29T00:44:37.159Z,98358.25
2023-01-29T00:47:04.794Z,98367.66
2023-01-29T00:49:31.498Z,98366.84
2023-01-29T00:52:17.267Z,98369.47
2023-01-29T00:54:43.854Z,98375.50
2023-01-29T00:57:10.563Z,98367.50
2023-01-29T00:59:37.495Z,98373.63
2023-01-29T01:02:22.566Z,98373.78
2023-01-29T01:04:49.238Z,98373.91
2023-01-29T01:07:15.842Z,98368.63
2023-01-29T01:10:01.105Z,98365.09
2023-01-29T01:12:29.028Z,98371.34
2023-01-29T01:14:55.770Z,98371.19
2023-01-29T01:17:22.717Z,98372.31
2023-01-29T01:19:49.488Z,98368.94
2023-01-29T01:22:16.374Z,98369.16
2023-01-29T01:24:44.100Z,98367.56
2023-01-29T01:27:10.825Z,98369.22
2023-01-29T01:29:37.528Z,98367.41
2023-01-29T01:32:04.517Z,98373.28
2023-01-29T01:34:31.284Z,98367.28
2023-01-29T01:36:57.872Z,98376.66
2023-01-29T01:39:25.407Z,98384.41
2023-01-29T01:41:53.684Z,98385.06
2023-01-29T01:44:55.897Z,98397.03
2023-01-29T01:47:31.366Z,98394.44
2023-01-29T01:50:06.655Z,98391.38
2023-01-29T01:52:34.254Z,98389.06
2023-01-29T01:55:01.211Z,98399.38
2023-01-29T01:57:31.063Z,98399.91
2023-01-29T02:00:10.000Z,98401.78
2023-01-29T02:03:01.021Z,98391.28
2023-01-29T02:05:50.130Z,98399.84
2023-01-29T02:08:42.895Z,98395.75
2023-01-29T02:11:10.269Z,98390.56
2023-01-29T02:13:36.978Z,98394.84
2023-01-29T02:16:03.720Z,98394.09
2023-01-29T02:18:30.349Z,98400.03
2023-01-29T02:21:03.070Z,98406.06
2023-01-29T02:24:05.271Z,98402.59
2023-01-29T02:26:53.910Z,98405.19
2023-01-29T02:29:34.449Z,98404.38
2023-01-29T02:32:21.099Z,98412.41
2023-01-29T02:35:32.119Z,98410.53
2023-01-29T02:38:06.030Z,98413.91
2023-01-29T02:40:40.992Z,98409.69
2023-01-29T02:43:19.705Z,98415.63
2023-01-29T02:45:49.355Z,98412.81
2023-01-29T02:48:22.963Z,98423.84
2023-01-29T02:50:58.899Z,98420.53
2023-01-29T02:53:36.330Z,98420.56
2023-01-29T02:56:10.516Z,98427.31
2023-01-29T02:58:46.209Z,98423.91
2023-01-29T03:01:20.756Z,98432.38
2023-01-29T03:03:55.607Z,98432.59
2023-01-29T03:06:29.858Z,98427.38
2023-01-29T03:08:58.989Z,98424.00
2023-01-29T03:11:34.054Z,98426.50
2023-01-29T03:14:08.878Z,98428.25
2023-01-29T03:16:51.919Z,98427.47
2023-01-29T03:19:18.913Z,98425.03
2023-01-29T03:22:00.183Z,98427.53
2023-01-29T03:25:00.426Z,98421.56
2023-01-29T03:27:57.433Z,98432.78
2023-01-29T03:30:46.783Z,98430.97
2023-01-29T03:33:40.752Z,98434.47
2023-01-29T03:36:38.193Z,98437.91
2023-01-29T03:39:07.098Z,98432.78
2023-01-29T03:41:58.561Z,98444.78
2023-01-29T03:44:33.820Z,98439.59
2023-01-29T03:47:26.179Z,98434.75
2023-01-29T03:50:02.794Z,98432.41
2023-01-29T03:52:51.951Z,98441.13
2023-01-29T03:55:55.355Z,98434.19
2023-01-29T03:58:22.297Z,98444.59
2023-01-29T04:01:21.253Z,98441.25
2023-01-29T04:04:21.849Z,98436.09
2023-01-29T04:06:53.070Z,98434.66
2023-01-29T04:09:27.667Z,98434.84
2023-01-29T04:12:02.176Z,98433.34
2023-01-29T04:14:31.977Z,98434.22
2023-01-29T04:17:03.529Z,98431.75
2023-01-29T04:19:50.647Z,98441.16
2023-01-29T04:22:33.781Z,98439.50
2023-01-29T04:25:15.486Z,98444.69
2023-01-29T04:27:45.997Z,98447.34
2023-01-29T04:30:51.659Z,98448.97
2023-01-29T04:33:18.336Z,98448.88
2023-01-29T04:36:07.205Z,98448.84
2023-01-29T04:42:11.004Z,98444.28
2023-01-29T04:44:50.163Z,98454.59
2023-01-29T04:47:25.785Z,98447.75
2023-01-29T04:50:13.723Z,98442.50
2023-01-29T04:52:46.647Z,98445.06
2023-01-29T04:55:32.081Z,98447.78
2023-01-29T04:58:04.698Z,98437.47
2023-01-29T05:00:36.842Z,98442.78
2023-01-29T05:03:03.963Z,98445.47
2023-01-29T05:05:30.903Z,98436.13
2023-01-29T05:07:59.115Z,98433.63
2023-01-29T05:10:26.805Z,98443.16
2023-01-29T05:13:00.436Z,98441.53
2023-01-29T05:15:33.506Z,98445.31
2023-01-29T05:18:03.116Z,98450.63
2023-01-29T05:20:33.401Z,98446.97
2023-01-29T05:23:00.003Z,98448.00
2023-01-29T05:25:32.315Z,98445.38
2023-01-29T05:28:11.893Z,98439.63
2023-01-29T05:30:39.926Z,98445.91
2023-01-29T05:33:15.325Z,98446.16
2023-01-29T05:35:42.368Z,98451.59
2023-01-29T05:38:09.063Z,98446.59
2023-01-29T05:40:36.422Z,98449.34
2023-01-29T05:43:03.193Z,98455.53
2023-01-29T05:45:29.909Z,98449.72
2023-01-29T05:47:58.089Z,98439.63
2023-01-29T05:50:25.935Z,98437.28
2023-01-29T05:52:59.903Z,98437.53
2023-01-29T05:55:29.402Z,98436.78
2023-01-29T05:57:56.285Z,98447.31
2023-01-29T06:00:23.131Z,98451.78
2023-01-29T06:02:49.887Z,98447.47
2023-01-29T06:05:16.621Z,98455.16
2023-01-29T06:07:45.339Z,98464.78
2023-01-29T06:10:17.301Z,98469.06
2023-01-29T06:12:44.764Z,98470.97
2023-01-29T06:15:12.467Z,98469.50
2023-01-29T06:17:39.059Z,98470.94
2023-01-29T06:20:06.293Z,98474.41
2023-01-29T06:22:33.897Z,98477.84
2023-01-29T06:25:00.546Z,98476.19
2023-01-29T06:27:27.289Z,98472.78
2023-01-29T06:29:53.887Z,98480.41
2023-01-29T06:32:20.493Z,98478.69
2023-01-29T06:34:49.448Z,98485.66
2023-01-29T06:37:16.375Z,98490.91
2023-01-29T06:39:42.986Z,98490.22
2023-01-29T06:42:10.087Z,98495.25
2023-01-29T06:44:37.035Z,98491.63
2023-01-29T06:47:03.689Z,98492.47
2023-01-29T06:49:30.306Z,98499.34
2023-01-29T06:51:57.408Z,98500.16
2023-01-29T06:54:24.134Z,98499.25
2023-01-29T06:56:51.966Z,98499.38
2023-01-29T06:59:18.551Z,98498.63
2023-01-29T07:01:45.197Z,98507.16
2023-01-29T07:04:11.838Z,98510.47
2023-01-29T07:06:38.490Z,98501.69
2023-01-29T07:09:05.362Z,98498.16
2023-01-29T07:11:32.205Z,98495.41
2023-01-29T07:13:58.789Z,98494.50
2023-01-29T07:16:26.430Z,98497.06
2023-01-29T07:18:53.248Z,98490.97
2023-01-29T07:21:19.881Z,98478.63
2023-01-29T07:23:46.557Z,98474.78
2023-01-29T07:26:13.249Z,98470.28
2023-01-29T07:28:40.996Z,98469.84
2023-01-29T07:31:10.139Z,98466.22
2023-01-29T07:33:36.766Z,98461.22
2023-01-29T07:36:07.833Z,98459.66
2023-01-29T07:38:34.508Z,98466.94
2023-01-29T07:41:02.881Z,98461.47
2023-01-29T07:43:30.248Z,98460.00
2023-01-29T07:45:57.053Z,98458.13
2023-01-29T07:48:23.711Z,98469.13
2023-01-29T07:50:57.248Z,98461.69
2023-01-29T07:53:24.022Z,98453.88
2023-01-29T07:55:50.762Z,98452.81
2023-01-29T07:58:17.514Z,98455.63
2023-01-29T08:00:44.294Z,98451.72
2023-01-29T08:03:17.290Z,98447.63
2023-01-29T08:05:44.909Z,98445.50
2023-01-29T08:08:12.075Z,98446.53
2023-01-29T08:10:39.727Z,98448.53
2023-01-29T08:13:07.136Z,98451.91
2023-01-29T08:15:34.291Z,98447.84
2023-01-29T08:18:02.429Z,98452.94
2023-01-29T08:20:29.118Z,98452.81
2023-01-29T08:23:05.904Z,98461.34
2023-01-29T08:25:33.609Z,98450.66
2023-01-29T08:28:01.128Z,98457.56
2023-01-29T08:30:30.244Z,98459.97
2023-01-29T08:32:56.866Z,98459.44
2023-01-29T08:35:24.480Z,98464.63
2023-01-29T08:37:59.439Z,98467.53
2023-01-29T08:40:31.948Z,98465.25
2023-01-29T08:43:09.029Z,98459.50
2023-01-29T08:45:38.570Z,98462.44
2023-01-29T08:48:06.054Z,98472.00
2023-01-29T08:50:34.831Z,98476.25
2023-01-29T08:53:04.428Z,98466.63
2023-01-29T08:55:31.007Z,98463.53
2023-01-29T08:57:57.584Z,98475.06
2023-01-29T09:00:24.598Z,98472.16
2023-01-29T09:02:51.222Z,98480.47
2023-01-29T09:05:18.153Z,98472.72
2023-01-29T09:07:45.073Z,98476.69
2023-01-29T09:10:12.339Z,98483.19
2023-01-29T09:12:39.053Z,98480.28
2023-01-29T09:15:06.204Z,98484.00
2023-01-29T09:17:32.767Z,98485.44
2023-01-29T09:19:59.390Z,98485.53
2023-01-29T09:22:25.959Z,98487.84
2023-01-29T09:24:52.542Z,98491.59
2023-01-29T09:27:19.277Z,98499.19
2023-01-29T09:29:45.838Z,98487.72
2023-01-29T09:32:12.472Z,98489.59
2023-01-29T09:34:39.082Z,98474.31
2023-01-29T09:37:06.499Z,98469.53
2023-01-29T09:39:33.212Z,98475.25
2023-01-29T09:42:22.349Z,98474.84
2023-01-29T09:45:20.991Z,98482.16
2023-01-29T09:47:48.816Z,98477.25
2023-01-29T09:50:26.191Z,98478.22
2023-01-29T09:52:58.825Z,98471.16
2023-01-29T09:55:37.126Z,98467.69
2023-01-29T09:58:19.087Z,98467.53
2023-01-29T10:00:58.606Z,98466.69
2023-01-29T10:03:37.298Z,98474.78
2023-01-29T10:06:28.199Z,98477.59
2023-01-29T10:09:26.007Z,98478.28
2023-01-29T10:12:24.999Z,98473.91
2023-01-29T10:15:29.395Z,98474.19
2023-01-29T10:18:05.647Z,98464.28
2023-01-29T10:20:50.252Z,98474.28
2023-01-29T10:23:33.493Z,98462.69
2023-01-29T10:26:01.145Z,98461.56
2023-01-29T10:28:47.653Z,98464.78
2023-01-29T10:31:21.061Z,98457.13
2023-01-29T10:34:02.030Z,98459.63
2023-01-29T10:36:57.034Z,98453.53
2023-01-29T10:39:26.705Z,98452.78
2023-01-29T10:42:05.707Z,98446.28
2023-01-29T10:45:00.511Z,98443.03
2023-01-29T10:47:36.385Z,98440.91
2023-01-29T10:50:20.740Z,98443.38
2023-01-29T10:52:57.991Z,98449.63
2023-01-29T10:55:40.371Z,98452.59
2023-01-29T10:58:16.339Z,98449.22
2023-01-29T11:00:43.063Z,98444.50
2023-01-29T11:03:27.602Z,98442.09
2023-01-29T11:06:32.894Z,98445.31
2023-01-29T11:08:59.409Z,98446.81
2023-01-29T11:11:41.941Z,98440.38
2023-01-29T11:14:29.927Z,98431.59
2023-01-29T11:16:56.755Z,98428.16
2023-01-29T11:19:41.700Z,98434.19
2023-01-29T11:22:17.946Z,98435.25
2023-01-29T11:24:44.597Z,98424.94
2023-01-29T11:27:25.938Z,98428.75
2023-01-29T11:29:53.947Z,98433.38
2023-01-29T11:32:23.591Z,98427.63
2023-01-29T11:35:02.261Z,98425.91
2023-01-29T11:37:37.570Z,98409.72
2023-01-29T11:40:19.561Z,98406.91
2023-01-29T11:42:47.064Z,98410.59
2023-01-29T11:45:22.725Z,98402.38
2023-01-29T11:47:56.958Z,98400.06
2023-01-29T11:50:26.514Z,98392.34
2023-01-29T11:52:53.687Z,98380.97
2023-01-29T11:55:24.561Z,98378.88
2023-01-29T11:57:54.392Z,98375.41
2023-01-29T12:00:27.583Z,98373.28
2023-01-29T12:03:02.438Z,98373.84
2023-01-29T12:05:29.212Z,98369.53
2023-01-29T12:07:57.756Z,98356.34
2023-01-29T12:10:35.844Z,98365.56
2023-01-29T12:13:05.183Z,98368.69
2023-01-29T12:15:31.854Z,98376.31
2023-01-29T12:18:04.876Z,98373.53
2023-01-29T12:20:51.594Z,98372.47
2023-01-29T12:23:36.617Z,98376.56
2023-01-29T12:26:12.884Z,98377.06
2023-01-29T12:28:44.779Z,98368.97
2023-01-29T12:31:23.210Z,98365.13
2023-01-29T12:34:10.885Z,98349.41
2023-01-29T12:36:53.125Z,98347.34
2023-01-29T12:39:20.937Z,98360.19
2023-01-29T12:42:05.058Z,98360.66
2023-01-29T12:44:59.443Z,98356.88
2023-01-29T12:47:48.553Z,98354.06
2023-01-29T12:50:21.075Z,98345.38
2023-01-29T12:52:54.074Z,98342.72
2023-01-29T12:55:23.026Z,98341.16
2023-01-29T12:58:12.675Z,98334.28
2023-01-29T13:00:43.327Z,98332.91
2023-01-29T13:03:43.154Z,98328.41
2023-01-29T13:06:15.681Z,98313.22
2023-01-29T13:08:51.537Z,98317.97
2023-01-29T13:11:33.656Z,98314.94
2023-01-29T13:14:09.329Z,98321.66
2023-01-29T13:16:45.372Z,98317.38
2023-01-29T13:19:20.832Z,98319.19
2023-01-29T13:21:48.685Z,98320.47
2023-01-29T13:24:18.479Z,98310.72
2023-01-29T13:26:49.284Z,98308.97
2023-01-29T13:29:30.284Z,98299.81
2023-01-29T13:31:59.395Z,98303.63
2023-01-29T13:34:25.967Z,98302.38
2023-01-29T13:36:56.324Z,98302.59
2023-01-29T13:39:52.153Z,98302.03
2023-01-29T13:42:44.019Z,98307.38
2023-01-29T13:45:22.723Z,98305.97
2023-01-29T13:47:51.402Z,98311.28
2023-01-29T13:50:38.258Z,98302.25
2023-01-29T13:53:08.239Z,98319.22
2023-01-29T13:55:39.651Z,98317.44
2023-01-29T13:58:13.999Z,98310.50
2023-01-29T14:00:40.597Z,98317.50
2023-01-29T14:03:11.779Z,98308.16
2023-01-29T14:05:54.290Z,98312.66
2023-01-29T14:08:36.060Z,98303.66
2023-01-29T14:11:15.276Z,98310.41
2023-01-29T14:13:43.773Z,98298.25
2023-01-29T14:16:10.486Z,98302.88
2023-01-29T14:18:47.019Z,98294.00
2023-01-29T14:21:16.604Z,98294.09
2023-01-29T14:24:09.351Z,98295.94
2023-01-29T14:26:38.977Z,98296.53
2023-01-29T14:29:25.440Z,98304.06
2023-01-29T14:32:08.538Z,98294.88
2023-01-29T14:34:41.992Z,98287.09
2023-01-29T14:37:14.832Z,98301.72
2023-01-29T14:39:46.088Z,98298.50
2023-01-29T14:42:26.995Z,98303.53
2023-01-29T14:45:22.010Z,98290.47
2023-01-29T14:47:48.694Z,98295.13
2023-01-29T14:50:33.043Z,98299.66
2023-01-29T14:53:12.869Z,98291.84
2023-01-29T14:55:52.901Z,98287.72
2023-01-29T14:58:33.092Z,98295.66
2023-01-29T15:01:02.090Z,98293.88
2023-01-29T15:03:43.015Z,98297.94
2023-01-29T15:06:16.297Z,98291.69
2023-01-29T15:08:53.697Z,98294.97
2023-01-29T15:11:35.765Z,98300.78
2023-01-29T15:14:25.029Z,98290.97
2023-01-29T15:17:17.225Z,98295.69
2023-01-29T15:19:48.429Z,98290.13
2023-01-29T15:22:23.460Z,98283.59
2023-01-29T15:25:07.614Z,98277.81
2023-01-29T15:27:34.655Z,98282.16
2023-01-29T15:30:03.727Z,98279.81
2023-01-29T15:32:37.126Z,98273.72
2023-01-29T15:35:19.434Z,98266.75
2023-01-29T15:37:59.184Z,98256.34
2023-01-29T15:40:26.821Z,98259.53
2023-01-29T15:42:53.378Z,98253.03
2023-01-29T15:45:27.384Z,98256.16
2023-01-29T15:48:17.325Z,98253.16
2023-01-29T15:50:45.207Z,98255.44
2023-01-29T15:53:19.686Z,98248.75
2023-01-29T15:55:47.625Z,98251.28
2023-01-29T15:58:28.267Z,98255.25
2023-01-29T16:00:56.779Z,98248.22
2023-01-29T16:03:26.367Z,98249.00
2023-01-29T16:05:54.422Z,98250.44
2023-01-29T16:08:23.410Z,98254.31
2023-01-29T16:10:55.319Z,98256.78
2023-01-29T16:13:29.085Z,98254.44
2023-01-29T16:16:01.238Z,98258.75
2023-01-29T16:18:41.085Z,98269.19
2023-01-29T16:21:22.749Z,98269.28
2023-01-29T16:23:53.949Z,98264.94
2023-01-29T16:26:25.648Z,98271.69
2023-01-29T16:28:52.690Z,98271.88
2023-01-29T16:31:27.216Z,98273.03
2023-01-29T16:33:56.710Z,98269.31
2023-01-29T16:36:26.589Z,98273.34
2023-01-29T16:39:01.954Z,98273.59
2023-01-29T16:41:31.812Z,98274.84
2023-01-29T16:44:04.149Z,98286.28
2023-01-29T16:46:35.576Z,98284.50
2023-01-29T16:49:02.673Z,98287.72
2023-01-29T16:51:36.741Z,98286.88
2023-01-29T16:54:24.947Z,98299.03
2023-01-29T16:57:02.021Z,98284.63
2023-01-29T16:59:39.528Z,98302.66
2023-01-29T17:02:22.405Z,98294.88
2023-01-29T17:04:51.341Z,98299.88
2023-01-29T17:07:21.392Z,98311.16
2023-01-29T17:09:54.255Z,98305.38
2023-01-29T17:12:25.395Z,98309.41
2023-01-29T17:15:00.437Z,98311.31
2023-01-29T17:17:31.341Z,98313.56
2023-01-29T17:20:02.569Z,98314.22
2023-01-29T17:22:29.235Z,98313.41
2023-01-29T17:24:55.824Z,98314.50
2023-01-29T17:27:23.104Z,98324.88
2023-01-29T17:29:49.775Z,98330.81
2023-01-29T17:32:18.785Z,98323.78
2023-01-29T17:34:46.894Z,98322.88
2023-01-29T17:37:15.735Z,98326.22
2023-01-29T17:39:43.941Z,98323.53
2023-01-29T17:42:13.983Z,98323.72
2023-01-29T17:44:43.276Z,98323.63
2023-01-29T17:47:15.125Z,98328.91
2023-01-29T17:49:42.752Z,98338.41
2023-01-29T17:52:09.712Z,98337.44
2023-01-29T17:54:36.525Z,98335.88
2023-01-29T17:57:03.212Z,98325.56
2023-01-29T17:59:32.060Z,98329.84
2023-01-29T18:01:59.285Z,98322.88
2023-01-29T18:04:26.415Z,98328.16
2023-01-29T18:06:53.436Z,98328.09
2023-01-29T18:09:21.851Z,98328.16
2023-01-29T18:11:49.912Z,98330.94
2023-01-29T18:14:17.384Z,98323.91
2023-01-29T18:16:45.041Z,98327.44
2023-01-29T18:19:31.187Z,98322.28
2023-01-29T18:21:57.795Z,98321.19
2023-01-29T18:24:26.519Z,98318.06
2023-01-29T18:26:53.279Z,98308.69
2023-01-29T18:29:19.936Z,98313.06
2023-01-29T18:31:49.174Z,98310.31
2023-01-29T18:34:15.916Z,98316.50
2023-01-29T18:36:46.636Z,98313.97
2023-01-29T18:39:14.625Z,98312.38
2023-01-29T18:41:41.265Z,98316.63
2023-01-29T18:44:07.936Z,98319.22
2023-01-29T18:46:34.576Z,98316.63
2023-01-29T18:49:01.179Z,98310.19
2023-01-29T18:51:27.756Z,98314.03
2023-01-29T18:53:54.381Z,98316.72
2023-01-29T18:56:20.993Z,98330.94
2023-01-29T18:58:52.167Z,98330.94
2023-01-29T19:01:22.404Z,98312.69
2023-01-29T19:03:49.057Z,98315.75
2023-01-29T19:06:15.659Z,98320.69
2023-01-29T19:08:43.094Z,98320.09
2023-01-29T19:11:12.324Z,98324.47
2023-01-29T19:13:39.106Z,98321.25
2023-01-29T19:16:07.907Z,98315.09
2023-01-29T19:18:34.533Z,98317.56
2023-01-29T19:21:07.511Z,98314.44
2023-01-29T19:23:34.185Z,98303.13
2023-01-29T19:26:00.747Z,98304.00
2023-01-29T19:28:27.359Z,98296.50
2023-01-29T19:30:57.917Z,98286.66
2023-01-29T19:33:25.689Z,98290.63
2023-01-29T19:35:52.326Z,98309.97
2023-01-29T19:38:21.221Z,98297.84
2023-01-29T19:40:48.469Z,98304.34
2023-01-29T19:43:17.569Z,98301.47
2023-01-29T19:45:50.407Z,98300.41
2023-01-29T19:48:21.535Z,98306.28
2023-01-29T19:50:52.841Z,98288.00
2023-01-29T19:53:19.457Z,98285.06
2023-01-29T19:55:46.125Z,98286.09
2023-01-29T19:58:12.710Z,98290.19
2023-01-29T20:00:39.588Z,98282.94
2023-01-29T20:03:06.240Z,98296.69
2023-01-29T20:05:35.919Z,98296.13
2023-01-29T20:08:02.501Z,98287.97
2023-01-29T20:10:29.081Z,98290.34
2023-01-29T20:12:55.686Z,98287.75
2023-01-29T20:15:22.566Z,98290.16
2023-01-29T20:17:49.143Z,98272.47
2023-01-29T20:20:16.902Z,98272.31
2023-01-29T20:22:43.918Z,98265.78
2023-01-29T20:25:13.572Z,98275.63
2023-01-29T20:27:40.667Z,98273.03
2023-01-29T20:30:08.240Z,98262.69
2023-01-29T20:32:35.333Z,98272.75
2023-01-29T20:35:02.180Z,98258.88
2023-01-29T20:37:28.781Z,98262.34
2023-01-29T20:39:55.415Z,98262.34
2023-01-29T20:42:22.107Z,98264.34
2023-01-29T20:44:48.673Z,98264.22
2023-01-29T20:47:15.473Z,98258.25
2023-01-29T20:49:42.043Z,98258.22
2023-01-29T20:52:10.285Z,98250.69
2023-01-29T20:54:37.181Z,98237.63
2023-01-29T20:57:03.910Z,98240.41
2023-01-29T20:59:31.444Z,98241.78
2023-01-29T21:01:58.104Z,98232.88
2023-01-29T21:04:24.879Z,98222.50
2023-01-29T21:06:51.553Z,98218.88
2023-01-29T21:09:18.148Z,98236.09
2023-01-29T21:11:45.094Z,98239.59
2023-01-29T21:14:11.814Z,98239.13
2023-01-29T21:16:38.471Z,98233.13
2023-01-29T21:19:05.084Z,98225.50
2023-01-29T21:21:31.749Z,98222.06
2023-01-29T21:23:58.420Z,98219.66
2023-01-29T21:26:25.102Z,98230.47
2023-01-29T21:28:51.701Z,98216.81
2023-01-29T21:31:18.561Z,98206.72
2023-01-29T21:33:45.195Z,98216.47
2023-01-29T21:36:11.960Z,98201.78
2023-01-29T21:38:39.620Z,98203.84
2023-01-29T21:41:09.598Z,98191.81
2023-01-29T21:43:37.261Z,98195.88
2023-01-29T21:46:11.300Z,98199.19
2023-01-29T21:48:39.319Z,98189.03
2023-01-29T21:51:06.408Z,98183.50
2023-01-29T21:53:33.151Z,98184.19
2023-01-29T21:56:01.744Z,98179.03
2023-01-29T21:58:28.876Z,98184.31
2023-01-29T22:00:55.511Z,98182.84
2023-01-29T22:03:22.366Z,98182.25
2023-01-29T22:05:50.073Z,98180.03
2023-01-29T22:08:17.939Z,98177.56
2023-01-29T22:10:44.777Z,98175.13
2023-01-29T22:13:11.536Z,98177.81
2023-01-29T22:15:38.106Z,98183.94
2023-01-29T22:18:04.799Z,98174.91
2023-01-29T22:20:31.678Z,98170.66
2023-01-29T22:23:00.256Z,98168.97
2023-01-29T22:25:27.548Z,98167.78
2023-01-29T22:27:54.297Z,98161.38
2023-01-29T22:30:23.210Z,98155.44
2023-01-29T22:32:50.503Z,98146.66
2023-01-29T22:35:17.574Z,98157.41
2023-01-29T22:37:45.107Z,98147.59
2023-01-29T22:40:12.882Z,98136.66
2023-01-29T22:42:39.510Z,98136.13
2023-01-29T22:45:07.389Z,98135.50
2023-01-29T22:47:33.999Z,98126.22
2023-01-29T22:50:00.608Z,98124.66
2023-01-29T22:52:28.368Z,98115.41
2023-01-29T22:54:55.049Z,98128.41
2023-01-29T22:57:21.728Z,98117.34
2023-01-29T22:59:48.349Z,98121.94
2023-01-29T23:02:15.006Z,98119.50
2023-01-29T23:04:41.763Z,98113.34
2023-01-29T23:07:08.370Z,98105.75
2023-01-29T23:09:34.963Z,98104.25
2023-01-29T23:12:01.582Z,98105.31
2023-01-29T23:14:28.173Z,98085.00
2023-01-29T23:16:54.803Z,98078.94
2023-01-29T23:19:21.477Z,98073.81
2023-01-29T23:21:48.073Z,98077.34
2023-01-29T23:24:15.240Z,98074.91
2023-01-29T23:27:00.153Z,98065.63
2023-01-29T23:29:26.817Z,98065.06
2023-01-29T23:31:53.410Z,98054.88
2023-01-29T23:34:20.478Z,98059.00
2023-01-29T23:36:47.509Z,98060.72
2023-01-29T23:39:14.106Z,98057.41
2023-01-29T23:41:40.690Z,98050.50
2023-01-29T23:44:07.316Z,98053.09
2023-01-29T23:46:33.974Z,98049.81
2023-01-29T23:49:00.745Z,98040.50
2023-01-29T23:51:27.397Z,98045.81
2023-01-29T23:53:54.265Z,98052.84
2023-01-29T23:56:20.853Z,98040.78
2023-01-29T23:58:47.517Z,98038.13
